Ever Ulysses — 9V7962 — position and weather

sailwx.info

Track history (hours):
 
Tides and Currents Weather Stations Pressure Air Temp Water Temp Dewpoint Dewpoint Depression Visibility Wind Speed Wind Dir Waves Ship Positions

Ever Ulysses

Last reported at 2016-May-25 03:30 UTC. Time now 2016-May-25 15:00 UTC.
Position N 33°39' W 118°21'.

Length 285 m; draft 9.7 m.

Type: Ship (hazmat cat D). MMSI: 564442000.

Date/timePositionNaut miles runAvg speedWind from/ knotsBaromVisibWave heightAir tempDewpointWater temp
2016-May-25 03:30N 33°39' W 118°21'6 6.5
2016-May-25 02:33N 33°43' W 118°16'1 0.9
2016-May-25 01:33N 33°44' W 118°15'0 0.0
2016-May-25 00:30N 33°44' W 118°15'0 0.0
2016-May-24 23:30N 33°44' W 118°15'0 0.1
2016-May-24 22:34N 33°44' W 118°15'0 0.0
2016-May-24 21:34N 33°44' W 118°15'0 0.0
2016-May-24 20:33N 33°44' W 118°15'0 0.0
2016-May-24 19:33N 33°44' W 118°15'0 0.0
2016-May-24 18:28N 33°44' W 118°15'0 0.1
2016-May-24 17:33N 33°44' W 118°15'0 0.0
2016-May-24 16:31N 33°44' W 118°15'0 0.1
2016-May-24 15:33N 33°44' W 118°15'0 0.0
2016-May-24 14:34N 33°44' W 118°15'0 0.1
2016-May-24 13:33N 33°44' W 118°15'0 0.0
2016-May-24 12:33N 33°44' W 118°15'0 0.0
2016-May-24 11:33N 33°44' W 118°15'0 0.0
2016-May-24 10:34N 33°44' W 118°15'0 0.0
2016-May-24 09:34N 33°44' W 118°15'0 0.0
2016-May-24 08:33N 33°44' W 118°15'0 0.0
2016-May-24 07:34N 33°44' W 118°15'0 0.0
2016-May-24 06:30N 33°44' W 118°15'0 0.1
2016-May-24 05:33N 33°44' W 118°15'0 0.0
2016-May-24 04:33N 33°44' W 118°15'0 0.0
2016-May-24 03:33N 33°44' W 118°15'0 0.0
2016-May-24 01:19N 33°44' W 118°15'0 0.1
2016-May-24 00:31N 33°44' W 118°15'0 0.0
2016-May-23 23:31N 33°44' W 118°15'0 0.1
2016-May-23 22:25N 33°44' W 118°15'0 0.0
2016-May-23 21:31N 33°44' W 118°15'0 0.0
2016-May-23 03:25N 33°44' W 118°15'0 0.0
2016-May-23 01:13N 33°44' W 118°15'0 0.0
2016-May-23 00:31N 33°44' W 118°15'0 0.0
2016-May-22 23:31N 33°44' W 118°15'1 0.6
2016-May-22 22:33N 33°43' W 118°16'7 6.6
2016-May-22 21:33N 33°37' W 118°16'7 7.4
2016-May-22 20:33N 33°36' W 118°24'8 8.1
2016-May-22 19:33N 33°37' W 118°34'9 8.3
2016-May-22 18:31N 33°38' W 118°44'  
Track history (hours):
 
Tides and Currents Weather Stations Pressure Air Temp Water Temp Dewpoint Dewpoint Depression Visibility Wind Speed Wind Dir Waves Ship Positions

Ever Ulysses

Last reported at 2016-May-25 03:30 UTC. Time now 2016-May-25 15:00 UTC.
Position N 33°39' W 118°21'.

Length 285 m; draft 9.7 m.

Type: Ship (hazmat cat D). MMSI: 564442000.

Date/timePositionNaut miles runAvg speedWind from/ knotsBaromVisibWave heightAir tempDewpointWater temp
2016-May-25 03:30N 33°39' W 118°21'6 6.5
2016-May-25 02:33N 33°43' W 118°16'1 0.9
2016-May-25 01:33N 33°44' W 118°15'0 0.0
2016-May-25 00:30N 33°44' W 118°15'0 0.0
2016-May-24 23:30N 33°44' W 118°15'0 0.1
2016-May-24 22:34N 33°44' W 118°15'0 0.0
2016-May-24 21:34N 33°44' W 118°15'0 0.0
2016-May-24 20:33N 33°44' W 118°15'0 0.0
2016-May-24 19:33N 33°44' W 118°15'0 0.0
2016-May-24 18:28N 33°44' W 118°15'0 0.1
2016-May-24 17:33N 33°44' W 118°15'0 0.0
2016-May-24 16:31N 33°44' W 118°15'0 0.1
2016-May-24 15:33N 33°44' W 118°15'0 0.0
2016-May-24 14:34N 33°44' W 118°15'0 0.1
2016-May-24 13:33N 33°44' W 118°15'0 0.0
2016-May-24 12:33N 33°44' W 118°15'0 0.0
2016-May-24 11:33N 33°44' W 118°15'0 0.0
2016-May-24 10:34N 33°44' W 118°15'0 0.0
2016-May-24 09:34N 33°44' W 118°15'0 0.0
2016-May-24 08:33N 33°44' W 118°15'0 0.0
2016-May-24 07:34N 33°44' W 118°15'0 0.0
2016-May-24 06:30N 33°44' W 118°15'0 0.1
2016-May-24 05:33N 33°44' W 118°15'0 0.0
2016-May-24 04:33N 33°44' W 118°15'0 0.0
2016-May-24 03:33N 33°44' W 118°15'0 0.0
2016-May-24 01:19N 33°44' W 118°15'0 0.1
2016-May-24 00:31N 33°44' W 118°15'0 0.0
2016-May-23 23:31N 33°44' W 118°15'0 0.1
2016-May-23 22:25N 33°44' W 118°15'0 0.0
2016-May-23 21:31N 33°44' W 118°15'0 0.0
2016-May-23 03:25N 33°44' W 118°15'0 0.0
2016-May-23 01:13N 33°44' W 118°15'0 0.0
2016-May-23 00:31N 33°44' W 118°15'0 0.0
2016-May-22 23:31N 33°44' W 118°15'1 0.6
2016-May-22 22:33N 33°43' W 118°16'7 6.6
2016-May-22 21:33N 33°37' W 118°16'7 7.4
2016-May-22 20:33N 33°36' W 118°24'8 8.1
2016-May-22 19:33N 33°37' W 118°34'9 8.3
2016-May-22 18:31N 33°38' W 118°44'  

Dump ship's entire track history